KAOH/AOH METAR and TAF weather

Enter ICAO airport designator
Station Type Date Time Source
KAOH METAR 2021/06/22 21:53 UTC NOAA

KAOH 222153Z AUTO 28008G19KT 250V320 10SM BKN075 19/05 A3000 RMK AO2 RAE2058 SLP158 P0000 T01940050


Station Type Date Time Source
KAOH Decoded METAR 2021/06/22 21:53 UTC NOAA

LIMA ALLEN COUNTY AIRPORT, OH, United States (KAOH) 40-42N 84-01W 296M
Jun 22, 2021 - 05:53 PM EDT / 2021.06.22 2153 UTC
Wind: from the W (280 degrees) at 9 MPH (8 KT) gusting to 22 MPH (19 KT) (direction variable):0
Visibility: 10 mile(s):0
Sky conditions: mostly cloudy
Precipitation last hour: A trace
Temperature: 66.9 F (19.4 C)
Dew Point: 41.0 F (5.0 C)
Relative Humidity: 38%
Pressure (altimeter): 30 in. Hg (1015 hPa)
ob: KAOH 222153Z AUTO 28008G19KT 250V320 10SM BKN075 19/05 A3000 RMK AO2 RAE2058 SLP158 P0000 T01940050
cycle: 22

Station Type Date Time Source
KAOH TAF UTC NOAA

Error!

Example: see airport list